createdAt,value
2023-05-10T00:00:23.494Z,99886.75
2023-05-10T00:03:09.736Z,99889.94
2023-05-10T00:05:38.089Z,99891.22
2023-05-10T00:08:06.264Z,99886.41
2023-05-10T00:10:34.531Z,99886.59
2023-05-10T00:13:03.945Z,99892.31
2023-05-10T00:15:32.335Z,99888.63
2023-05-10T00:18:00.442Z,99898.72
2023-05-10T00:20:28.746Z,99889.22
2023-05-10T00:22:56.744Z,99891.94
2023-05-10T00:25:25.018Z,99894.19
2023-05-10T00:27:53.046Z,99894.41
2023-05-10T00:30:22.835Z,99890.78
2023-05-10T00:32:50.979Z,99890.91
2023-05-10T00:35:19.318Z,99887.75
2023-05-10T00:37:47.450Z,99886.66
2023-05-10T00:40:16.769Z,99881.41
2023-05-10T00:42:48.978Z,99890.09
2023-05-10T00:45:17.246Z,99888.84
2023-05-10T00:47:47.119Z,99885.16
2023-05-10T00:50:16.943Z,99903.94
2023-05-10T00:52:45.347Z,99898.31
2023-05-10T00:55:13.894Z,99896.81
2023-05-10T00:57:41.933Z,99897.09
2023-05-10T01:00:12.075Z,99900.44
2023-05-10T01:02:40.423Z,99895.66
2023-05-10T01:05:10.711Z,99895.94
2023-05-10T01:07:38.803Z,99892.59
2023-05-10T01:10:07.930Z,99898.88
2023-05-10T01:12:36.825Z,99892.03
2023-05-10T01:15:06.512Z,99894.66
2023-05-10T01:17:34.604Z,99902.13
2023-05-10T01:20:03.035Z,99898.16
2023-05-10T01:22:44.702Z,99896.81
2023-05-10T01:25:31.314Z,99902.06
2023-05-10T01:28:41.344Z,99908.44
2023-05-10T01:31:20.670Z,99906.59
2023-05-10T01:33:54.421Z,99902.06
2023-05-10T01:36:27.962Z,99903.72
2023-05-10T01:39:01.454Z,99907.13
2023-05-10T01:41:39.596Z,99911.78
2023-05-10T01:44:13.486Z,99910.13
2023-05-10T01:46:42.125Z,99917.56
2023-05-10T01:49:14.142Z,99923.22
2023-05-10T01:51:47.449Z,99913.69
2023-05-10T01:54:16.207Z,99922.31
2023-05-10T01:56:45.961Z,99925.59
2023-05-10T01:59:15.462Z,99919.63
2023-05-10T02:01:44.933Z,99921.16
2023-05-10T02:04:16.675Z,99932.28
2023-05-10T02:06:45.425Z,99925.16
2023-05-10T02:09:13.905Z,99931.97
2023-05-10T02:11:43.664Z,99926.50
2023-05-10T02:14:13.382Z,99930.72
2023-05-10T02:16:41.742Z,99932.63
2023-05-10T02:19:11.157Z,99933.88
2023-05-10T02:21:41.638Z,99943.72
2023-05-10T02:24:10.737Z,99941.13
2023-05-10T02:26:40.236Z,99943.63
2023-05-10T02:29:08.806Z,99937.28
2023-05-10T02:31:37.130Z,99937.78
2023-05-10T02:34:06.164Z,99944.03
2023-05-10T02:36:34.996Z,99944.03
2023-05-10T02:39:05.193Z,99950.88
2023-05-10T02:41:34.360Z,99945.06
2023-05-10T02:44:03.562Z,99947.66
2023-05-10T02:46:32.432Z,99944.44
2023-05-10T02:49:00.681Z,99941.78
2023-05-10T02:51:34.520Z,99937.78
2023-05-10T02:54:09.006Z,99946.66
2023-05-10T02:56:40.379Z,99940.19
2023-05-10T02:59:08.588Z,99950.91
2023-05-10T03:01:36.857Z,99954.84
2023-05-10T03:04:05.326Z,99949.53
2023-05-10T03:06:33.825Z,99946.91
2023-05-10T03:09:05.368Z,99945.38
2023-05-10T03:11:42.153Z,99939.53
2023-05-10T03:14:18.067Z,99940.97
2023-05-10T03:16:48.878Z,99945.94
2023-05-10T03:19:20.048Z,99948.56
2023-05-10T03:21:52.247Z,99949.13
2023-05-10T03:24:24.239Z,99957.19
2023-05-10T03:26:53.887Z,99954.56
2023-05-10T03:29:22.414Z,99963.06
2023-05-10T03:31:50.758Z,99960.41
2023-05-10T03:34:18.946Z,99965.59
2023-05-10T03:36:47.159Z,99960.19
2023-05-10T03:39:15.195Z,99956.56
2023-05-10T03:41:46.183Z,99962.72
2023-05-10T03:44:14.233Z,99966.25
2023-05-10T03:46:42.562Z,99959.03
2023-05-10T03:49:10.799Z,99973.72
2023-05-10T03:51:39.101Z,99973.91
2023-05-10T03:54:07.397Z,99972.47
2023-05-10T03:56:35.657Z,99971.72
2023-05-10T03:59:08.267Z,99975.47
2023-05-10T04:01:36.736Z,99972.00
2023-05-10T04:04:05.032Z,99977.84
2023-05-10T04:06:33.923Z,99976.31
2023-05-10T04:09:04.999Z,99977.88
2023-05-10T04:11:33.469Z,99988.78
2023-05-10T04:14:01.567Z,99989.09
2023-05-10T04:16:31.205Z,99995.97
2023-05-10T04:18:59.395Z,99998.16
2023-05-10T04:21:27.897Z,99997.09
2023-05-10T04:23:55.861Z,100001.41
2023-05-10T04:26:24.844Z,100009.41
2023-05-10T04:28:52.902Z,100008.34
2023-05-10T04:31:21.213Z,100007.25
2023-05-10T04:33:50.860Z,100006.47
2023-05-10T04:36:19.194Z,100003.50
2023-05-10T04:38:47.293Z,100006.66
2023-05-10T04:41:15.571Z,100000.72
2023-05-10T04:43:43.505Z,100011.44
2023-05-10T04:46:11.893Z,100012.19
2023-05-10T04:48:39.962Z,100014.00
2023-05-10T04:51:09.666Z,100015.59
2023-05-10T04:53:37.654Z,100016.56
2023-05-10T04:56:06.539Z,100012.56
2023-05-10T04:58:34.555Z,100010.19
2023-05-10T05:01:07.371Z,100020.72
2023-05-10T05:03:35.511Z,100025.91
2023-05-10T05:06:04.339Z,100014.91
2023-05-10T05:08:33.684Z,100020.78
2023-05-10T05:11:01.928Z,100016.03
2023-05-10T05:13:30.065Z,100015.16
2023-05-10T05:15:58.488Z,100026.03
2023-05-10T05:18:26.466Z,100027.34
2023-05-10T05:20:54.720Z,100031.00
2023-05-10T05:23:25.606Z,100021.63
2023-05-10T05:25:55.482Z,100026.84
2023-05-10T05:28:23.521Z,100026.31
2023-05-10T05:30:51.830Z,100026.81
2023-05-10T05:33:19.803Z,100028.28
2023-05-10T05:35:51.636Z,100030.91
2023-05-10T05:38:19.697Z,100038.31
2023-05-10T05:40:48.101Z,100036.69
2023-05-10T05:43:17.462Z,100033.34
2023-05-10T05:45:45.781Z,100041.41
2023-05-10T05:48:13.819Z,100048.31
2023-05-10T05:50:42.166Z,100039.19
2023-05-10T05:53:11.008Z,100039.16
2023-05-10T05:55:39.368Z,100045.50
2023-05-10T05:58:07.514Z,100047.19
2023-05-10T06:00:37.246Z,100050.59
2023-05-10T06:03:05.440Z,100061.50
2023-05-10T06:05:33.761Z,100050.38
2023-05-10T06:08:02.060Z,100068.16
2023-05-10T06:10:31.413Z,100071.59
2023-05-10T06:12:59.443Z,100068.06
2023-05-10T06:15:27.997Z,100074.53
2023-05-10T06:17:57.346Z,100075.78
2023-05-10T06:20:25.630Z,100077.59
2023-05-10T06:22:53.636Z,100075.63
2023-05-10T06:25:22.235Z,100083.91
2023-05-10T06:27:52.879Z,100071.25
2023-05-10T06:30:24.055Z,100083.50
2023-05-10T06:32:52.759Z,100088.38
2023-05-10T06:35:22.538Z,100092.59
2023-05-10T06:37:50.607Z,100094.41
2023-05-10T06:40:19.349Z,100082.50
2023-05-10T06:42:47.526Z,100081.44
2023-05-10T06:45:16.590Z,100081.34
2023-05-10T06:47:45.020Z,100082.44
2023-05-10T06:50:13.455Z,100082.72
2023-05-10T06:52:44.078Z,100088.38
2023-05-10T06:55:12.890Z,100086.22
2023-05-10T06:57:40.881Z,100089.56
2023-05-10T07:00:10.535Z,100097.59
2023-05-10T07:02:38.575Z,100098.66
2023-05-10T07:05:07.570Z,100093.16
2023-05-10T07:07:35.598Z,100090.53
2023-05-10T07:10:05.990Z,100095.88
2023-05-10T07:12:34.135Z,100101.19
2023-05-10T07:15:02.453Z,100090.78
2023-05-10T07:17:31.069Z,100098.94
2023-05-10T07:19:59.333Z,100103.81
2023-05-10T07:22:27.414Z,100098.13
2023-05-10T07:24:56.172Z,100100.22
2023-05-10T07:27:25.983Z,100098.66
2023-05-10T07:29:54.216Z,100094.78
2023-05-10T07:32:22.360Z,100096.41
2023-05-10T07:34:50.695Z,100103.31
2023-05-10T07:37:18.637Z,100098.50
2023-05-10T07:39:46.914Z,100101.66
2023-05-10T07:42:14.944Z,100109.50
2023-05-10T07:44:44.620Z,100110.81
2023-05-10T07:47:12.636Z,100107.19
2023-05-10T07:49:41.115Z,100111.94
2023-05-10T07:52:09.092Z,100113.31
2023-05-10T07:54:37.387Z,100115.25
2023-05-10T07:57:05.734Z,100121.72
2023-05-10T07:59:34.433Z,100122.06
2023-05-10T08:02:03.783Z,100120.44
2023-05-10T08:04:32.081Z,100125.44
2023-05-10T08:07:00.127Z,100116.03
2023-05-10T08:09:28.362Z,100120.78
2023-05-10T08:11:56.380Z,100131.19
2023-05-10T08:14:24.597Z,100118.38
2023-05-10T08:16:52.587Z,100127.75
2023-05-10T08:19:22.471Z,100115.44
2023-05-10T08:21:50.712Z,100123.56
2023-05-10T08:24:19.061Z,100113.31
2023-05-10T08:26:47.013Z,100125.06
2023-05-10T08:29:15.300Z,100125.50
2023-05-10T08:31:43.611Z,100119.94
2023-05-10T08:34:12.014Z,100123.91
2023-05-10T08:36:41.358Z,100123.09
2023-05-10T08:39:22.924Z,100127.75
2023-05-10T08:41:56.244Z,100127.59
2023-05-10T08:44:24.477Z,100130.06
2023-05-10T08:46:53.550Z,100129.03
2023-05-10T08:49:22.045Z,100133.28
2023-05-10T08:51:54.362Z,100137.78
2023-05-10T08:54:23.346Z,100132.72
2023-05-10T08:56:51.351Z,100128.44
2023-05-10T08:59:19.822Z,100134.59
2023-05-10T09:01:50.263Z,100136.63
2023-05-10T09:04:18.755Z,100142.97
2023-05-10T09:06:46.875Z,100141.97
2023-05-10T09:09:17.033Z,100149.25
2023-05-10T09:11:45.464Z,100152.19
2023-05-10T09:14:14.596Z,100149.00
2023-05-10T09:16:43.089Z,100147.84
2023-05-10T09:19:11.610Z,100151.22
2023-05-10T09:21:40.150Z,100156.56
2023-05-10T09:24:09.734Z,100150.94
2023-05-10T09:26:48.432Z,100157.34
2023-05-10T09:29:17.758Z,100159.09
2023-05-10T09:31:48.311Z,100149.88
2023-05-10T09:34:20.898Z,100150.91
2023-05-10T09:36:56.236Z,100163.91
2023-05-10T09:39:32.792Z,100166.06
2023-05-10T09:42:05.234Z,100165.47
2023-05-10T09:44:33.817Z,100171.97
2023-05-10T09:47:02.208Z,100175.72
2023-05-10T09:49:30.847Z,100177.91
2023-05-10T09:52:03.669Z,100171.41
2023-05-10T09:54:32.140Z,100174.09
2023-05-10T09:57:00.194Z,100188.66
2023-05-10T09:59:31.229Z,100192.50
2023-05-10T10:02:00.153Z,100164.25
2023-05-10T10:04:29.902Z,100184.91
2023-05-10T10:07:02.523Z,100177.25
2023-05-10T10:09:31.310Z,100177.69
2023-05-10T10:11:59.685Z,100182.94
2023-05-10T10:14:28.217Z,100182.09
2023-05-10T10:17:07.227Z,100169.31
2023-05-10T10:19:38.076Z,100168.47
2023-05-10T10:22:06.819Z,100177.59
2023-05-10T10:24:35.642Z,100177.09
2023-05-10T10:27:11.351Z,100178.47
2023-05-10T10:29:45.786Z,100183.03
2023-05-10T10:32:24.538Z,100204.34
2023-05-10T10:34:53.199Z,100209.28
2023-05-10T10:37:21.241Z,100181.38
2023-05-10T10:39:50.615Z,100202.16
2023-05-10T10:42:45.833Z,100189.19
2023-05-10T10:45:14.803Z,100188.72
2023-05-10T10:47:44.860Z,100192.38
2023-05-10T10:50:13.909Z,100186.28
2023-05-10T10:52:42.728Z,100191.31
2023-05-10T10:55:12.450Z,100200.16
2023-05-10T10:57:48.728Z,100170.66
2023-05-10T11:00:31.596Z,100178.88
2023-05-10T11:03:02.483Z,100181.69
2023-05-10T11:05:42.151Z,100174.97
2023-05-10T11:08:12.760Z,100177.13
2023-05-10T11:10:42.266Z,100183.09
2023-05-10T11:13:11.176Z,100190.84
2023-05-10T11:15:40.759Z,100188.03
2023-05-10T11:18:23.141Z,100183.69
2023-05-10T11:20:54.737Z,100178.50
2023-05-10T11:23:23.137Z,100184.50
2023-05-10T11:25:51.661Z,100179.25
2023-05-10T11:28:20.894Z,100187.72
2023-05-10T11:30:49.403Z,100191.06
2023-05-10T11:33:18.753Z,100183.75
2023-05-10T11:35:48.437Z,100179.50
2023-05-10T11:38:16.513Z,100188.13
2023-05-10T11:40:45.548Z,100203.72
2023-05-10T11:43:13.981Z,100196.34
2023-05-10T11:45:43.230Z,100186.25
2023-05-10T11:48:11.384Z,100183.56
2023-05-10T11:50:39.820Z,100214.31
2023-05-10T11:53:09.406Z,100196.59
2023-05-10T11:55:37.633Z,100206.13
2023-05-10T11:58:05.971Z,100198.72
2023-05-10T12:00:34.810Z,100197.63
2023-05-10T12:03:03.403Z,100199.25
2023-05-10T12:05:34.718Z,100208.38
2023-05-10T12:08:17.592Z,100200.19
2023-05-10T12:10:45.868Z,100195.03
2023-05-10T12:13:15.420Z,100204.38
2023-05-10T12:15:45.732Z,100202.44
2023-05-10T12:18:14.605Z,100194.63
2023-05-10T12:20:43.385Z,100208.75
2023-05-10T12:23:12.021Z,100209.44
2023-05-10T12:25:41.770Z,100206.16
2023-05-10T12:28:11.167Z,100208.19
2023-05-10T12:30:39.785Z,100208.63
2023-05-10T12:33:10.837Z,100210.59
2023-05-10T12:35:46.963Z,100208.81
2023-05-10T12:38:31.572Z,100209.38
2023-05-10T12:41:02.305Z,100219.63
2023-05-10T12:43:31.204Z,100215.88
2023-05-10T12:46:00.008Z,100217.00
2023-05-10T12:48:29.646Z,100242.22
2023-05-10T12:50:57.915Z,100224.63
2023-05-10T12:53:26.072Z,100233.75
2023-05-10T12:55:54.627Z,100232.09
2023-05-10T12:58:34.964Z,100225.00
2023-05-10T13:01:05.101Z,100242.00
2023-05-10T13:03:35.558Z,100223.50
2023-05-10T13:06:03.612Z,100224.00
2023-05-10T13:08:34.724Z,100238.91
2023-05-10T13:11:03.697Z,100223.53
2023-05-10T13:13:33.362Z,100223.63
2023-05-10T13:16:01.489Z,100225.13
2023-05-10T13:18:29.844Z,100227.63
2023-05-10T13:20:57.899Z,100222.38
2023-05-10T13:23:26.148Z,100229.06
2023-05-10T13:25:54.130Z,100225.75
2023-05-10T13:28:22.426Z,100216.63
2023-05-10T13:30:52.015Z,100216.63
2023-05-10T13:33:20.435Z,100222.94
2023-05-10T13:35:48.696Z,100228.00
2023-05-10T13:38:16.948Z,100212.19
2023-05-10T13:40:44.981Z,100224.44
2023-05-10T13:43:13.436Z,100222.41
2023-05-10T13:45:41.670Z,100205.00
2023-05-10T13:48:11.346Z,100211.38
2023-05-10T13:50:39.518Z,100205.06
2023-05-10T13:53:07.938Z,100208.69
2023-05-10T13:55:36.021Z,100219.34
2023-05-10T13:58:04.343Z,100197.28
2023-05-10T14:00:32.846Z,100203.44
2023-05-10T14:03:01.562Z,100203.63
2023-05-10T14:05:31.038Z,100197.47
2023-05-10T14:08:07.424Z,100191.97
2023-05-10T14:10:40.460Z,100203.22
2023-05-10T14:13:08.943Z,100187.63
2023-05-10T14:15:37.060Z,100198.91
2023-05-10T14:18:05.330Z,100207.34
2023-05-10T14:20:34.855Z,100187.00
2023-05-10T14:23:03.336Z,100188.84
2023-05-10T14:25:31.521Z,100176.66
2023-05-10T14:27:59.813Z,100179.34
2023-05-10T14:30:27.868Z,100175.63
2023-05-10T14:32:56.334Z,100186.94
2023-05-10T14:35:24.508Z,100179.09
2023-05-10T14:37:54.386Z,100184.69
2023-05-10T14:40:22.474Z,100184.06
2023-05-10T14:42:50.762Z,100182.78
2023-05-10T14:45:19.246Z,100181.16
2023-05-10T14:47:47.586Z,100185.00
2023-05-10T14:50:28.167Z,100181.06
2023-05-10T14:53:05.204Z,100182.97
2023-05-10T14:55:33.506Z,100184.22
2023-05-10T14:58:01.893Z,100185.78
2023-05-10T15:00:31.379Z,100189.13
2023-05-10T15:03:00.528Z,100194.66
2023-05-10T15:05:29.008Z,100180.63
2023-05-10T15:07:57.517Z,100177.66
2023-05-10T15:10:26.846Z,100176.47
2023-05-10T15:12:55.025Z,100181.88
2023-05-10T15:15:23.082Z,100176.47
2023-05-10T15:17:51.450Z,100182.00
2023-05-10T15:20:19.558Z,100179.78
2023-05-10T15:22:47.804Z,100173.84
2023-05-10T15:25:16.786Z,100173.06
2023-05-10T15:27:46.536Z,100173.56
2023-05-10T15:30:14.923Z,100172.34
2023-05-10T15:32:43.831Z,100184.38
2023-05-10T15:35:12.193Z,100178.78
2023-05-10T15:37:40.497Z,100175.22
2023-05-10T15:40:09.180Z,100179.91
2023-05-10T15:42:37.596Z,100170.53
2023-05-10T15:45:08.259Z,100167.69
2023-05-10T15:47:36.504Z,100181.88
2023-05-10T15:50:04.780Z,100174.00
2023-05-10T15:52:32.977Z,100173.50
2023-05-10T15:55:01.037Z,100180.19
2023-05-10T15:57:29.225Z,100173.63
2023-05-10T15:59:57.842Z,100166.75
2023-05-10T16:02:27.434Z,100176.78
2023-05-10T16:04:55.580Z,100171.38
2023-05-10T16:07:23.811Z,100177.63
2023-05-10T16:09:51.800Z,100182.88
2023-05-10T16:12:20.950Z,100182.13
2023-05-10T16:14:49.124Z,100186.94
2023-05-10T16:17:17.404Z,100173.28
2023-05-10T16:19:47.342Z,100182.78
2023-05-10T16:22:15.719Z,100180.66
2023-05-10T16:24:43.815Z,100177.53
2023-05-10T16:27:13.196Z,100179.78
2023-05-10T16:29:41.218Z,100175.75
2023-05-10T16:32:09.439Z,100171.56
2023-05-10T16:34:37.490Z,100181.06
2023-05-10T16:37:07.326Z,100182.16
2023-05-10T16:39:35.418Z,100186.91
2023-05-10T16:42:03.615Z,100184.81
2023-05-10T16:44:31.632Z,100180.28
2023-05-10T16:46:59.915Z,100181.69
2023-05-10T16:49:27.909Z,100183.06
2023-05-10T16:51:56.171Z,100181.84
2023-05-10T16:54:26.140Z,100185.19
2023-05-10T16:56:54.461Z,100191.53
2023-05-10T16:59:22.438Z,100184.06
2023-05-10T17:01:53.292Z,100195.88
2023-05-10T17:04:21.683Z,100200.94
2023-05-10T17:06:49.913Z,100193.97
2023-05-10T17:09:17.878Z,100190.97
2023-05-10T17:11:47.562Z,100196.78
2023-05-10T17:14:15.567Z,100192.97
2023-05-10T17:16:43.804Z,100203.56
2023-05-10T17:19:11.828Z,100206.22
2023-05-10T17:21:40.156Z,100209.38
2023-05-10T17:24:08.349Z,100212.00
2023-05-10T17:26:36.813Z,100209.19
2023-05-10T17:29:06.162Z,100205.22
2023-05-10T17:31:34.489Z,100206.09
2023-05-10T17:34:05.328Z,100212.03
2023-05-10T17:36:34.322Z,100221.44
2023-05-10T17:39:02.370Z,100216.97
2023-05-10T17:41:30.622Z,100224.31
2023-05-10T17:43:58.721Z,100227.53
2023-05-10T17:46:28.344Z,100224.34
2023-05-10T17:48:56.421Z,100221.81
2023-05-10T17:51:24.600Z,100219.03
2023-05-10T17:53:52.651Z,100217.44
2023-05-10T17:56:22.182Z,100222.41
2023-05-10T17:58:50.505Z,100222.00
2023-05-10T18:01:18.903Z,100223.41
2023-05-10T18:03:49.898Z,100228.28
2023-05-10T18:06:18.311Z,100228.13
2023-05-10T18:08:46.438Z,100225.31
2023-05-10T18:11:14.726Z,100229.88
2023-05-10T18:13:42.751Z,100234.72
2023-05-10T18:16:12.595Z,100232.44
2023-05-10T18:18:40.714Z,100232.50
2023-05-10T18:21:10.378Z,100229.19
2023-05-10T18:23:38.347Z,100231.47
2023-05-10T18:26:06.735Z,100226.38
2023-05-10T18:28:34.848Z,100233.09
2023-05-10T18:31:03.232Z,100236.69
2023-05-10T18:33:31.291Z,100232.31
2023-05-10T18:35:59.787Z,100230.72
2023-05-10T18:38:29.255Z,100238.56
2023-05-10T18:40:57.709Z,100236.22
2023-05-10T18:43:25.696Z,100245.81
2023-05-10T18:45:53.960Z,100237.13
2023-05-10T18:48:21.973Z,100240.09
2023-05-10T18:50:50.254Z,100239.28
2023-05-10T18:53:18.204Z,100241.97
2023-05-10T18:55:47.855Z,100243.59
2023-05-10T18:58:15.863Z,100247.88
2023-05-10T19:00:44.085Z,100245.72
2023-05-10T19:03:12.053Z,100246.50
2023-05-10T19:05:40.378Z,100244.69
2023-05-10T19:08:08.384Z,100256.34
2023-05-10T19:10:36.642Z,100254.72
2023-05-10T19:13:06.019Z,100257.00
2023-05-10T19:15:34.245Z,100259.97
2023-05-10T19:18:03.176Z,100258.69
2023-05-10T19:20:31.425Z,100265.53
2023-05-10T19:23:09.766Z,100264.47
2023-05-10T19:25:39.248Z,100271.63
2023-05-10T19:28:10.719Z,100275.41
2023-05-10T19:30:38.955Z,100283.03
2023-05-10T19:33:07.098Z,100277.44
2023-05-10T19:35:35.510Z,100282.34
2023-05-10T19:38:03.508Z,100290.19
2023-05-10T19:40:32.010Z,100274.72
2023-05-10T19:43:00.362Z,100291.75
2023-05-10T19:45:30.162Z,100298.25
2023-05-10T19:47:58.602Z,100297.69
2023-05-10T19:50:26.988Z,100300.91
2023-05-10T19:52:54.974Z,100296.66
2023-05-10T19:55:28.593Z,100303.03
2023-05-10T19:57:56.814Z,100309.41
2023-05-10T20:00:25.987Z,100295.41
2023-05-10T20:02:55.591Z,100308.03
2023-05-10T20:05:24.204Z,100304.22
2023-05-10T20:07:52.350Z,100313.03
2023-05-10T20:10:21.521Z,100310.41
2023-05-10T20:12:52.365Z,100303.38
2023-05-10T20:15:22.689Z,100309.75
2023-05-10T20:17:52.720Z,100311.31
2023-05-10T20:20:23.523Z,100309.53
2023-05-10T20:22:51.948Z,100314.41
2023-05-10T20:25:20.344Z,100313.34
2023-05-10T20:27:50.685Z,100317.09
2023-05-10T20:30:19.519Z,100322.66
2023-05-10T20:32:47.913Z,100318.03
2023-05-10T20:35:16.271Z,100320.31
2023-05-10T20:37:45.739Z,100320.28
2023-05-10T20:40:14.279Z,100317.66
2023-05-10T20:42:42.367Z,100314.50
2023-05-10T20:45:11.641Z,100315.13
2023-05-10T20:47:39.717Z,100324.72
2023-05-10T20:50:08.868Z,100320.03
2023-05-10T20:52:36.833Z,100315.75
2023-05-10T20:55:07.707Z,100328.59
2023-05-10T20:57:36.501Z,100327.00
2023-05-10T21:00:05.679Z,100321.63
2023-05-10T21:02:33.942Z,100329.41
2023-05-10T21:05:02.369Z,100322.72
2023-05-10T21:07:32.249Z,100320.66
2023-05-10T21:10:00.503Z,100326.81
2023-05-10T21:12:29.963Z,100320.84
2023-05-10T21:14:58.383Z,100323.84
2023-05-10T21:17:26.383Z,100321.34
2023-05-10T21:19:54.664Z,100318.25
2023-05-10T21:22:22.718Z,100314.72
2023-05-10T21:24:51.115Z,100316.28
2023-05-10T21:27:19.055Z,100313.09
2023-05-10T21:29:48.766Z,100316.00
2023-05-10T21:32:16.857Z,100308.13
2023-05-10T21:34:45.120Z,100310.69
2023-05-10T21:37:13.603Z,100310.09
2023-05-10T21:39:42.101Z,100312.34
2023-05-10T21:42:10.288Z,100312.47
2023-05-10T21:44:39.221Z,100321.34
2023-05-10T21:47:08.747Z,100321.19
2023-05-10T21:49:36.981Z,100319.41
2023-05-10T21:52:08.017Z,100320.75
2023-05-10T21:54:37.279Z,100322.41
2023-05-10T21:57:05.262Z,100319.78
2023-05-10T21:59:33.845Z,100315.81
2023-05-10T22:02:02.126Z,100316.63
2023-05-10T22:04:32.101Z,100313.47
2023-05-10T22:07:00.131Z,100312.97
2023-05-10T22:09:28.386Z,100319.63
2023-05-10T22:11:56.576Z,100317.00
2023-05-10T22:14:25.024Z,100316.75
2023-05-10T22:16:53.057Z,100317.84
2023-05-10T22:19:21.326Z,100321.28
2023-05-10T22:21:50.757Z,100316.84
2023-05-10T22:24:19.255Z,100317.94
2023-05-10T22:26:47.329Z,100319.59
2023-05-10T22:29:15.532Z,100317.47
2023-05-10T22:31:43.491Z,100322.63
2023-05-10T22:34:11.721Z,100316.03
2023-05-10T22:36:39.743Z,100320.84
2023-05-10T22:39:09.371Z,100320.13
2023-05-10T22:41:37.373Z,100328.91
2023-05-10T22:44:05.692Z,100327.88
2023-05-10T22:46:33.699Z,100331.16
2023-05-10T22:49:02.535Z,100325.31
2023-05-10T22:51:30.524Z,100332.72
2023-05-10T22:53:58.840Z,100329.22
2023-05-10T22:56:28.226Z,100337.19
2023-05-10T22:58:57.680Z,100337.44
2023-05-10T23:01:25.772Z,100341.75
2023-05-10T23:03:54.049Z,100336.50
2023-05-10T23:06:22.109Z,100334.91
2023-05-10T23:08:50.396Z,100341.81
2023-05-10T23:11:18.422Z,100337.34
2023-05-10T23:13:48.122Z,100334.41
2023-05-10T23:16:16.123Z,100341.09
2023-05-10T23:18:44.391Z,100341.88
2023-05-10T23:21:12.432Z,100346.13
2023-05-10T23:23:41.317Z,100349.28
2023-05-10T23:26:09.411Z,100347.16
2023-05-10T23:28:37.914Z,100346.34
2023-05-10T23:31:07.246Z,100343.41
2023-05-10T23:33:35.603Z,100344.50
2023-05-10T23:36:03.551Z,100347.66
2023-05-10T23:38:31.864Z,100351.38
2023-05-10T23:40:59.869Z,100349.25
2023-05-10T23:43:28.306Z,100348.69
2023-05-10T23:45:56.711Z,100347.59
2023-05-10T23:48:26.662Z,100350.50
2023-05-10T23:50:54.712Z,100355.09
2023-05-10T23:53:23.043Z,100350.81
2023-05-10T23:55:51.049Z,100347.09
2023-05-10T23:58:19.282Z,100348.41
